Aurelia, Iowa
Current Conditions -  °F | °C
As of 3:35 PM on Sunday 23 Nov 2014 (Local Time) from KCKP Reporting Station
Overcast Overcast  
Wind Chill: 33°   Ceiling: 6500
Heat Index: 41°   Visibility: 10mi
Dew Point: 37°   Wind: 15mph
Humidity: 84%   Direction: 340°NNW
Pressure: 29.48"   Gusts: 22mph
Location:  42.71°N, 95.44°W
Report Text: KCKP 232135Z AUTO 34013G19KT 10SM SCT042 OVC065 05/03 A2948 RMK AO2 T00500025
Loading
Personal Weather Stations






























Interactive Weather Map New forecast layout! Learn more

10-Day Weather Forecast

Advertisements
Track Severe Weather on mobile